createdAt,value
2019-02-10T00:00:36.817Z,99486.22
2019-02-10T00:04:46.723Z,99477.30
2019-02-10T00:08:53.959Z,99454.05
2019-02-10T00:13:40.932Z,99447.47
2019-02-10T00:17:48.046Z,99452.73
2019-02-10T00:21:55.103Z,99446.39
2019-02-10T00:26:01.991Z,99427.13
2019-02-10T00:30:08.991Z,99433.41
2019-02-10T00:34:16.236Z,99424.83
2019-02-10T00:38:23.182Z,99427.40
2019-02-10T00:42:30.318Z,99423.21
2019-02-10T00:46:37.135Z,99420.63
2019-02-10T00:50:46.088Z,99403.20
2019-02-10T00:54:53.044Z,99387.61
2019-02-10T00:58:59.881Z,99382.51
2019-02-10T01:03:07.963Z,99367.11
2019-02-10T01:07:15.031Z,99376.43
2019-02-10T01:11:22.047Z,99374.30
2019-02-10T01:15:28.934Z,99371.70
2019-02-10T01:19:35.932Z,99358.80
2019-02-10T01:23:42.765Z,99352.48
2019-02-10T01:27:49.626Z,99351.01
2019-02-10T01:31:56.595Z,99343.65
2019-02-10T01:36:04.508Z,99325.89
2019-02-10T01:40:12.039Z,99323.39
2019-02-10T01:44:20.016Z,99320.18
2019-02-10T01:48:27.506Z,99308.96
2019-02-10T01:52:34.490Z,99300.53
2019-02-10T01:56:41.422Z,99284.02
2019-02-10T02:00:49.619Z,99274.21
2019-02-10T02:04:56.551Z,99263.50
2019-02-10T02:09:05.031Z,99246.97
2019-02-10T02:13:12.275Z,99232.20
2019-02-10T02:17:19.176Z,99223.66
2019-02-10T02:21:26.222Z,99196.81
2019-02-10T02:25:33.114Z,99183.27
2019-02-10T02:29:40.105Z,99168.69
2019-02-10T02:33:47.523Z,99152.89
2019-02-10T02:37:54.573Z,99158.88
2019-02-10T02:42:01.602Z,99146.52
2019-02-10T02:46:08.773Z,99135.55
2019-02-10T02:50:15.784Z,99124.92
2019-02-10T02:54:22.761Z,99120.08
2019-02-10T02:58:29.745Z,99102.02
2019-02-10T03:02:36.720Z,99091.19
2019-02-10T03:06:47.237Z,99089.05
2019-02-10T03:10:54.033Z,99072.72
2019-02-10T03:15:00.881Z,99061.80
2019-02-10T03:19:07.883Z,99044.88
2019-02-10T03:23:14.726Z,99024.69
2019-02-10T03:27:21.820Z,98999.84
2019-02-10T03:31:29.251Z,99013.03
2019-02-10T03:35:36.661Z,99009.78
2019-02-10T03:39:43.888Z,99017.77
2019-02-10T03:43:50.935Z,99005.83
2019-02-10T03:47:58.082Z,98999.12
2019-02-10T03:52:06.076Z,98992.98
2019-02-10T03:56:12.971Z,98976.00
2019-02-10T04:00:20.046Z,98963.22
2019-02-10T04:04:27.193Z,98942.19
2019-02-10T04:08:34.110Z,98939.34
2019-02-10T04:12:40.966Z,98940.08
2019-02-10T04:16:47.921Z,98940.53
2019-02-10T04:20:54.805Z,98923.02
2019-02-10T04:25:01.868Z,98920.25
2019-02-10T04:29:08.820Z,98913.17
2019-02-10T04:33:16.724Z,98906.97
2019-02-10T04:37:23.719Z,98895.44
2019-02-10T04:41:30.663Z,98875.55
2019-02-10T04:45:37.899Z,98864.81
2019-02-10T04:49:44.752Z,98863.61
2019-02-10T04:53:51.608Z,98855.06
2019-02-10T04:57:58.425Z,98837.96
2019-02-10T05:02:05.702Z,98830.14
2019-02-10T05:06:12.764Z,98826.99
2019-02-10T05:10:21.792Z,98821.24
2019-02-10T05:14:29.494Z,98810.41
2019-02-10T05:18:36.340Z,98795.30
2019-02-10T05:22:43.338Z,98778.47
2019-02-10T05:26:50.595Z,98777.41
2019-02-10T05:30:57.502Z,98752.15
2019-02-10T05:35:04.383Z,98741.86
2019-02-10T05:39:11.266Z,98738.98
2019-02-10T05:43:18.108Z,98728.73
2019-02-10T05:47:25.035Z,98714.41
2019-02-10T05:51:32.011Z,98692.75
2019-02-10T05:55:39.027Z,98691.37
2019-02-10T05:59:46.015Z,98674.33
2019-02-10T06:03:53.039Z,98655.36
2019-02-10T06:07:59.981Z,98645.32
2019-02-10T06:12:06.885Z,98633.97
2019-02-10T06:16:14.042Z,98616.78
2019-02-10T06:20:21.066Z,98606.16
2019-02-10T06:24:28.265Z,98612.26
2019-02-10T06:28:35.131Z,98597.87
2019-02-10T06:32:42.085Z,98587.55
2019-02-10T06:36:48.973Z,98577.80
2019-02-10T06:40:55.811Z,98560.87
2019-02-10T06:45:04.131Z,98556.92
2019-02-10T06:49:11.005Z,98551.13
2019-02-10T06:53:18.164Z,98530.70
2019-02-10T06:57:26.868Z,98521.60
2019-02-10T07:01:41.088Z,98508.45
2019-02-10T07:05:47.976Z,98506.98
2019-02-10T07:09:55.012Z,98480.19
2019-02-10T07:14:06.797Z,98477.75
2019-02-10T07:19:12.515Z,98460.47
2019-02-10T07:24:26.193Z,98438.94
2019-02-10T07:29:10.961Z,98428.38
2019-02-10T07:33:50.411Z,98412.27
2019-02-10T07:38:21.584Z,98413.53
2019-02-10T07:43:19.254Z,98406.69
2019-02-10T07:48:24.126Z,98389.72
2019-02-10T07:53:24.238Z,98393.66
2019-02-10T07:58:10.394Z,98419.37
2019-02-10T08:03:19.187Z,98379.98
2019-02-10T08:08:29.893Z,98374.98
2019-02-10T08:13:23.276Z,98379.92
2019-02-10T08:17:59.094Z,98370.42
2019-02-10T08:22:50.537Z,98356.84
2019-02-10T08:27:55.958Z,98343.63
2019-02-10T08:32:27.012Z,98341.75
2019-02-10T08:36:57.639Z,98335.03
2019-02-10T08:42:03.967Z,98323.10
2019-02-10T08:46:49.801Z,98300.20
2019-02-10T08:51:36.959Z,98300.75
2019-02-10T08:55:44.090Z,98272.31
2019-02-10T08:59:51.213Z,98253.06
2019-02-10T09:04:01.232Z,98244.81
2019-02-10T09:08:08.538Z,98230.72
2019-02-10T09:12:15.502Z,98226.88
2019-02-10T09:16:22.410Z,98223.95
2019-02-10T09:20:31.014Z,98208.80
2019-02-10T09:24:39.318Z,98209.45
2019-02-10T09:28:46.527Z,98199.83
2019-02-10T09:32:53.587Z,98184.05
2019-02-10T09:37:00.634Z,98181.00
2019-02-10T09:41:07.575Z,98177.53
2019-02-10T09:45:15.040Z,98154.99
2019-02-10T09:49:22.093Z,98161.30
2019-02-10T09:53:28.988Z,98138.31
2019-02-10T09:57:40.624Z,98129.82
2019-02-10T10:01:47.844Z,98114.25
2019-02-10T10:05:55.947Z,98112.42
2019-02-10T10:10:02.871Z,98116.83
2019-02-10T10:14:12.545Z,98105.39
2019-02-10T10:18:19.461Z,98102.13
2019-02-10T10:22:26.362Z,98100.03
2019-02-10T10:26:33.295Z,98082.59
2019-02-10T10:30:40.330Z,98074.66
2019-02-10T10:34:47.201Z,98057.36
2019-02-10T10:38:54.062Z,98054.23
2019-02-10T10:43:01.023Z,98057.03
2019-02-10T10:47:09.024Z,98047.27
2019-02-10T10:51:15.983Z,98048.39
2019-02-10T10:55:22.855Z,98029.56
2019-02-10T10:59:29.777Z,98020.60
2019-02-10T11:03:36.657Z,98021.77
2019-02-10T11:07:43.761Z,98016.47
2019-02-10T11:11:51.982Z,98011.70
2019-02-10T11:15:59.162Z,98006.14
2019-02-10T11:20:06.864Z,97985.12
2019-02-10T11:24:14.000Z,97971.30
2019-02-10T11:28:20.977Z,97966.81
2019-02-10T11:32:28.874Z,97950.79
2019-02-10T11:36:35.938Z,97942.96
2019-02-10T11:40:47.114Z,97939.27
2019-02-10T11:44:55.054Z,97927.63
2019-02-10T11:49:03.958Z,97921.53
2019-02-10T11:53:12.777Z,97918.44
2019-02-10T11:57:19.902Z,97914.67
2019-02-10T12:01:28.938Z,97905.84
2019-02-10T12:05:39.458Z,97895.20
2019-02-10T12:09:51.763Z,97898.31
2019-02-10T12:13:59.453Z,97896.05
2019-02-10T12:18:06.303Z,97880.39
2019-02-10T12:22:13.330Z,97884.65
2019-02-10T12:26:20.316Z,97872.27
2019-02-10T12:30:28.246Z,97873.86
2019-02-10T12:34:35.197Z,97859.05
2019-02-10T12:38:42.508Z,97858.20
2019-02-10T12:42:49.519Z,97864.61
2019-02-10T12:46:56.613Z,97840.82
2019-02-10T12:51:04.072Z,97837.02
2019-02-10T12:55:11.205Z,97832.09
2019-02-10T12:59:18.495Z,97833.19
2019-02-10T13:03:26.505Z,97823.98
2019-02-10T13:07:33.338Z,97824.66
2019-02-10T13:11:40.200Z,97839.56
2019-02-10T13:15:47.089Z,97830.39
2019-02-10T13:19:54.130Z,97827.55
2019-02-10T13:24:01.007Z,97826.69
2019-02-10T13:28:07.927Z,97832.78
2019-02-10T13:32:15.027Z,97823.72
2019-02-10T13:36:22.331Z,97826.91
2019-02-10T13:40:29.160Z,97829.28
2019-02-10T13:44:36.094Z,97823.65
2019-02-10T13:48:43.064Z,97810.91
2019-02-10T13:52:50.289Z,97823.65
2019-02-10T13:56:57.204Z,97817.98
2019-02-10T14:01:04.172Z,97815.02
2019-02-10T14:05:11.261Z,97794.59
2019-02-10T14:09:18.229Z,97801.54
2019-02-10T14:13:25.172Z,97796.70
2019-02-10T14:17:32.197Z,97809.79
2019-02-10T14:21:39.096Z,97822.50
2019-02-10T14:25:50.102Z,97820.86
2019-02-10T14:29:57.198Z,97813.84
2019-02-10T14:34:04.141Z,97816.54
2019-02-10T14:38:11.105Z,97821.20
2019-02-10T14:42:18.364Z,97826.77
2019-02-10T14:46:25.377Z,97835.65
2019-02-10T14:50:32.375Z,97835.65
2019-02-10T14:54:39.433Z,97846.86
2019-02-10T14:58:46.370Z,97856.18
2019-02-10T15:02:54.233Z,97846.01
2019-02-10T15:07:01.400Z,97851.56
2019-02-10T15:11:10.061Z,97843.01
2019-02-10T15:15:17.356Z,97847.73
2019-02-10T15:19:24.377Z,97851.69
2019-02-10T15:23:31.343Z,97857.98
2019-02-10T15:27:40.847Z,97853.47
2019-02-10T15:31:47.907Z,97866.14
2019-02-10T15:35:54.874Z,97879.94
2019-02-10T15:40:01.748Z,97888.11
2019-02-10T15:44:10.358Z,97856.20
2019-02-10T15:48:17.438Z,97863.34
2019-02-10T15:52:24.625Z,97849.55
2019-02-10T15:56:31.546Z,97876.32
2019-02-10T16:00:38.842Z,97886.13
2019-02-10T16:04:46.004Z,97887.52
2019-02-10T16:08:52.946Z,97903.06
2019-02-10T16:13:01.121Z,97898.50
2019-02-10T16:17:08.008Z,97896.20
2019-02-10T16:21:15.058Z,97893.25
2019-02-10T16:25:21.963Z,97910.92
2019-02-10T16:29:29.903Z,97940.07
2019-02-10T16:33:36.807Z,97936.30
2019-02-10T16:37:44.387Z,97955.90
2019-02-10T16:41:51.259Z,97961.50
2019-02-10T16:45:58.473Z,97949.39
2019-02-10T16:50:07.903Z,97946.10
2019-02-10T16:54:14.838Z,97946.98
2019-02-10T16:58:21.738Z,97939.11
2019-02-10T17:02:28.763Z,97971.79
2019-02-10T17:06:35.608Z,97996.25
2019-02-10T17:10:42.649Z,97995.13
2019-02-10T17:14:49.765Z,97986.63
2019-02-10T17:18:56.679Z,98015.08
2019-02-10T17:23:04.799Z,98025.86
2019-02-10T17:27:11.743Z,98025.67
2019-02-10T17:31:18.653Z,98025.84
2019-02-10T17:35:25.482Z,98026.88
2019-02-10T17:39:32.431Z,98034.06
2019-02-10T17:43:39.372Z,98034.47
2019-02-10T17:47:46.184Z,98041.50
2019-02-10T17:51:53.040Z,98049.52
2019-02-10T17:55:59.879Z,98043.27
2019-02-10T18:00:08.337Z,98062.58
2019-02-10T18:04:15.483Z,98075.86
2019-02-10T18:08:23.004Z,98074.54
2019-02-10T18:12:30.288Z,98102.66
2019-02-10T18:17:05.160Z,98102.33
2019-02-10T18:21:36.854Z,98114.61
2019-02-10T18:25:58.234Z,98129.95
2019-02-10T18:30:24.866Z,98130.61
2019-02-10T18:34:50.086Z,98131.84
2019-02-10T18:39:24.970Z,98143.64
2019-02-10T18:43:57.344Z,98146.93
2019-02-10T18:48:16.100Z,98148.34
2019-02-10T18:52:35.617Z,98172.97
2019-02-10T18:57:07.605Z,98176.77
2019-02-10T19:01:49.690Z,98187.53
2019-02-10T19:06:14.546Z,98200.75
2019-02-10T19:10:39.327Z,98203.20
2019-02-10T19:15:11.191Z,98209.08
2019-02-10T19:19:31.548Z,98219.75
2019-02-10T19:24:00.456Z,98226.77
2019-02-10T19:28:29.012Z,98229.77
2019-02-10T19:32:50.169Z,98255.72
2019-02-10T19:37:13.797Z,98241.67
2019-02-10T19:41:39.529Z,98251.77
2019-02-10T19:46:05.777Z,98250.45
2019-02-10T19:50:35.113Z,98241.98
2019-02-10T19:55:06.627Z,98228.82
2019-02-10T19:59:35.577Z,98238.75
2019-02-10T20:04:07.905Z,98243.73
2019-02-10T20:08:45.571Z,98241.84
2019-02-10T20:13:10.201Z,98224.64
2019-02-10T20:17:33.418Z,98270.48
2019-02-10T20:21:57.832Z,98261.02
2019-02-10T20:26:23.381Z,98247.04
2019-02-10T20:30:40.797Z,98254.18
2019-02-10T20:35:12.294Z,98281.83
2019-02-10T20:39:27.380Z,98308.78
2019-02-10T20:43:38.583Z,98328.36
2019-02-10T20:48:23.036Z,98336.54
2019-02-10T20:52:49.020Z,98346.84
2019-02-10T20:57:03.943Z,98347.25
2019-02-10T21:01:30.032Z,98346.34
2019-02-10T21:05:56.107Z,98350.58
2019-02-10T21:10:21.706Z,98358.30
2019-02-10T21:14:47.979Z,98374.94
2019-02-10T21:19:53.961Z,98386.36
2019-02-10T21:24:35.843Z,98401.02
2019-02-10T21:34:08.316Z,98421.55
2019-02-10T21:38:50.467Z,98437.59
2019-02-10T21:43:16.207Z,98431.58
2019-02-10T21:47:31.947Z,98446.41
2019-02-10T21:51:38.718Z,98456.42
2019-02-10T21:55:46.387Z,98443.31
2019-02-10T21:59:53.856Z,98461.14
2019-02-10T22:04:00.702Z,98479.01
2019-02-10T22:08:07.542Z,98474.77
2019-02-10T22:12:14.380Z,98463.00
2019-02-10T22:16:21.200Z,98478.89
2019-02-10T22:20:28.008Z,98489.02
2019-02-10T22:24:34.915Z,98494.79
2019-02-10T22:28:41.751Z,98506.22
2019-02-10T22:32:48.701Z,98512.40
2019-02-10T22:36:55.583Z,98516.75
2019-02-10T22:41:02.436Z,98541.08
2019-02-10T22:45:11.045Z,98552.59
2019-02-10T22:49:18.841Z,98559.06
2019-02-10T22:53:25.683Z,98572.36
2019-02-10T22:57:34.638Z,98572.06
2019-02-10T23:01:42.018Z,98579.73
2019-02-10T23:05:49.216Z,98590.70
2019-02-10T23:09:56.553Z,98597.39
2019-02-10T23:14:03.339Z,98602.35
2019-02-10T23:18:10.252Z,98614.41
2019-02-10T23:22:17.154Z,98635.94
2019-02-10T23:26:24.173Z,98650.23
2019-02-10T23:30:31.087Z,98624.89
2019-02-10T23:34:37.922Z,98658.06
2019-02-10T23:38:44.873Z,98657.47
2019-02-10T23:42:52.799Z,98700.13
2019-02-10T23:46:59.657Z,98712.89
2019-02-10T23:51:06.574Z,98717.52
2019-02-10T23:55:13.384Z,98730.05
2019-02-10T23:59:20.191Z,98735.91
